Time;durP1;ratioP1;P1;durP2;ratioP2;P2;SDS_P1;SDS_P2;PMS_P1;PMS_P2;Temp;Humidity;BMP_temperature;BMP_pressure;BME280_temperature;BME280_humidity;BME280_pressure;Samples;Min_cycle;Max_cycle;Signal;HPM_P1;HPM_P2
2023/10/23 00:02:25;;;;;;;;;;;6.90;99.90;;;;;;5105106;28;20279;-79
2023/10/23 00:04:50;;;;;;;;;;;6.90;99.90;;;;;;5079127;28;19927;-79
2023/10/23 00:07:16;;;;;;;;;;;6.80;99.90;;;;;;5103666;28;19923;-82
2023/10/23 00:09:42;;;;;;;;;;;6.70;99.90;;;;;;5115644;27;20587;-82
2023/10/23 00:12:08;;;;;;;;;;;6.70;99.90;;;;;;5105664;27;19996;-82
2023/10/23 00:14:34;;;;;;;;;;;6.60;99.90;;;;;;5095056;28;19922;-82
2023/10/23 00:17:00;;;;;;;;;;;6.50;99.90;;;;;;5100378;27;19919;-82
2023/10/23 00:19:26;;;;;;;;;;;6.50;99.90;;;;;;5100893;27;20002;-82
2023/10/23 00:21:52;;;;;;;;;;;6.40;99.90;;;;;;5103102;27;19919;-82
2023/10/23 00:24:17;;;;;;;;;;;6.40;99.90;;;;;;5117518;27;20430;-82
2023/10/23 00:26:43;;;;;;;;;;;6.40;99.90;;;;;;5085679;28;19916;-82
2023/10/23 00:29:09;;;;;;;;;;;6.40;99.90;;;;;;5104499;27;19915;-82
2023/10/23 00:31:34;;;;;;;;;;;6.30;99.90;;;;;;5086887;28;19931;-82
2023/10/23 00:34:00;;;;;;;;;;;6.30;99.90;;;;;;5080523;28;20002;-83
2023/10/23 00:36:25;;;;;;;;;;;6.20;99.90;;;;;;5093156;28;20396;-82
2023/10/23 00:38:51;;;;;;;;;;;6.20;99.90;;;;;;5091291;27;19956;-82
2023/10/23 00:41:16;;;;;;;;;;;6.10;99.90;;;;;;5110835;27;19915;-82
2023/10/23 00:43:42;;;;;;;;;;;6.00;99.90;;;;;;5099615;27;20718;-82
2023/10/23 00:46:14;;;;;;;;;;;6.10;99.90;;;;;;5102244;27;19922;-82
2023/10/23 00:48:39;;;;;;;;;;;6.20;99.90;;;;;;5117093;27;19922;-81
2023/10/23 00:51:06;;;;;;;;;;;6.30;99.90;;;;;;5074293;28;19920;-82
2023/10/23 00:53:33;;;;;;;;;;;6.30;99.90;;;;;;5113799;28;19920;-82
2023/10/23 00:56:00;;;;;;;;;;;6.20;99.90;;;;;;5096708;28;19919;-82
2023/10/23 00:58:25;;;;;;;;;;;6.20;99.90;;;;;;5100463;27;19915;-82
2023/10/23 01:00:52;;;;;;;;;;;6.10;99.90;;;;;;5110550;28;20336;-82
2023/10/23 01:03:17;;;;;;;;;;;6.10;99.90;;;;;;5101702;27;19919;-82
2023/10/23 01:05:43;;;;;;;;;;;6.00;99.90;;;;;;5108316;28;19969;-82
2023/10/23 01:08:09;;;;;;;;;;;6.00;99.90;;;;;;5095818;27;19926;-82
2023/10/23 01:10:35;;;;;;;;;;;6.00;99.90;;;;;;5088500;28;19923;-82
2023/10/23 01:13:04;;;;;;;;;;;6.20;99.90;;;;;;5102265;28;19991;-82
2023/10/23 01:15:30;;;;;;;;;;;6.20;99.90;;;;;;5109751;28;19920;-82
2023/10/23 01:17:57;;;;;;;;;;;6.30;99.90;;;;;;5081897;28;19916;-82
2023/10/23 01:20:23;;;;;;;;;;;6.40;99.90;;;;;;5096758;27;19915;-82
2023/10/23 01:22:48;;;;;;;;;;;6.40;99.90;;;;;;5087437;27;19919;-82
2023/10/23 01:25:15;;;;;;;;;;;6.40;99.90;;;;;;5096157;28;19916;-82
2023/10/23 01:27:41;;;;;;;;;;;6.40;99.90;;;;;;5102187;28;19915;-82
2023/10/23 01:30:08;;;;;;;;;;;6.40;99.90;;;;;;5088061;28;20370;-82
2023/10/23 01:32:34;;;;;;;;;;;6.30;99.90;;;;;;5079996;28;19926;-82
2023/10/23 01:34:59;;;;;;;;;;;6.30;99.90;;;;;;5079169;28;19998;-82
2023/10/23 01:37:25;;;;;;;;;;;6.20;99.90;;;;;;5080277;27;19916;-82
2023/10/23 01:39:50;;;;;;;;;;;6.00;99.90;;;;;;5103067;27;19915;-82
2023/10/23 01:42:16;;;;;;;;;;;5.90;99.90;;;;;;5086216;27;20355;-82
2023/10/23 01:44:42;;;;;;;;;;;5.80;99.90;;;;;;5083330;27;19923;-82
2023/10/23 01:47:07;;;;;;;;;;;5.80;99.90;;;;;;5073418;27;20003;-82
2023/10/23 01:49:33;;;;;;;;;;;5.80;99.90;;;;;;5098240;27;20358;-82
2023/10/23 01:51:58;;;;;;;;;;;5.80;99.90;;;;;;5102332;28;19920;-81
2023/10/23 01:54:24;;;;;;;;;;;5.70;99.90;;;;;;5078611;28;19915;-82
2023/10/23 01:56:49;;;;;;;;;;;5.70;99.90;;;;;;5109793;28;20010;-82
2023/10/23 01:59:15;;;;;;;;;;;5.60;99.90;;;;;;5102395;28;20382;-82
2023/10/23 02:01:41;;;;;;;;;;;5.60;99.90;;;;;;5094138;27;19958;-82
2023/10/23 02:04:07;;;;;;;;;;;5.50;99.90;;;;;;5101358;28;19935;-82
2023/10/23 02:06:32;;;;;;;;;;;5.50;99.90;;;;;;5100546;28;20002;-82
2023/10/23 02:08:59;;;;;;;;;;;5.50;99.90;;;;;;5106754;28;19999;-82
2023/10/23 02:11:24;;;;;;;;;;;5.40;99.90;;;;;;5113641;27;20002;-82
2023/10/23 02:13:50;;;;;;;;;;;5.40;99.90;;;;;;5092577;28;20034;-81
2023/10/23 02:16:16;;;;;;;;;;;5.30;99.90;;;;;;5094585;28;19923;-83
2023/10/23 02:18:41;;;;;;;;;;;5.30;99.90;;;;;;5117439;27;19915;-83
2023/10/23 02:21:07;;;;;;;;;;;5.40;99.90;;;;;;5083213;27;19984;-82
2023/10/23 02:23:32;;;;;;;;;;;5.40;99.90;;;;;;5115882;27;20018;-82
2023/10/23 02:25:59;;;;;;;;;;;5.30;99.90;;;;;;5113650;27;19961;-82
2023/10/23 02:28:25;;;;;;;;;;;5.20;99.90;;;;;;5087174;28;19920;-82
2023/10/23 02:30:51;;;;;;;;;;;5.30;99.90;;;;;;5081325;27;19950;-82
2023/10/23 02:33:16;;;;;;;;;;;5.20;99.90;;;;;;5115577;28;19951;-82
2023/10/23 02:35:42;;;;;;;;;;;5.20;99.90;;;;;;5115599;28;19915;-82
2023/10/23 02:38:08;;;;;;;;;;;5.30;99.90;;;;;;5115591;28;19915;-82
2023/10/23 02:40:34;;;;;;;;;;;5.30;99.90;;;;;;5114609;28;19938;-82
2023/10/23 02:42:59;;;;;;;;;;;5.20;99.90;;;;;;5095521;28;19916;-82
2023/10/23 02:45:25;;;;;;;;;;;5.20;99.90;;;;;;5078309;28;19923;-82
2023/10/23 02:47:51;;;;;;;;;;;5.20;99.90;;;;;;5084444;28;19923;-82
2023/10/23 02:50:16;;;;;;;;;;;5.10;99.90;;;;;;5106146;28;19915;-82
2023/10/23 02:52:42;;;;;;;;;;;5.10;99.90;;;;;;5095588;28;20019;-82
2023/10/23 02:55:08;;;;;;;;;;;5.10;99.90;;;;;;5094803;28;20286;-82
2023/10/23 02:57:33;;;;;;;;;;;5.10;99.90;;;;;;5095508;28;20008;-82
2023/10/23 02:59:59;;;;;;;;;;;5.00;99.90;;;;;;5080525;28;19955;-82
2023/10/23 03:02:25;;;;;;;;;;;5.00;99.90;;;;;;5107185;28;19923;-82
2023/10/23 03:04:50;;;;;;;;;;;5.10;99.90;;;;;;5079805;28;20756;-82
2023/10/23 03:07:16;;;;;;;;;;;5.00;99.90;;;;;;5098441;27;20276;-82
2023/10/23 03:09:41;;;;;;;;;;;4.90;99.90;;;;;;5085131;27;19961;-82
2023/10/23 03:12:07;;;;;;;;;;;4.90;99.90;;;;;;5096319;28;19919;-82
2023/10/23 03:14:32;;;;;;;;;;;4.90;99.90;;;;;;5085200;27;20007;-82
2023/10/23 03:16:59;;;;;;;;;;;4.90;99.90;;;;;;5119542;27;19916;-82
2023/10/23 03:19:25;;;;;;;;;;;4.90;99.90;;;;;;5101917;27;20593;-82
2023/10/23 03:21:52;;;;;;;;;;;4.90;99.90;;;;;;5099361;27;20007;-82
2023/10/23 03:24:18;;;;;;;;;;;4.90;99.90;;;;;;5110759;28;20295;-82
2023/10/23 03:26:43;;;;;;;;;;;5.00;99.90;;;;;;5112302;27;19916;-82
2023/10/23 03:29:09;;;;;;;;;;;5.00;99.90;;;;;;5118513;27;19968;-82
2023/10/23 03:31:35;;;;;;;;;;;4.90;99.90;;;;;;5106627;28;19926;-82
2023/10/23 03:34:01;;;;;;;;;;;5.00;99.90;;;;;;5113744;28;20480;-82
2023/10/23 03:36:26;;;;;;;;;;;4.90;99.90;;;;;;5107754;28;20432;-82
2023/10/23 03:38:53;;;;;;;;;;;4.90;99.90;;;;;;5111679;28;19922;-82
2023/10/23 03:41:19;;;;;;;;;;;4.90;99.90;;;;;;5118962;27;20006;-82
2023/10/23 03:43:44;;;;;;;;;;;4.90;99.90;;;;;;5118019;27;20411;-82
2023/10/23 03:46:10;;;;;;;;;;;4.90;99.90;;;;;;5067749;28;19927;-82
2023/10/23 03:48:36;;;;;;;;;;;4.90;99.90;;;;;;5105069;28;19915;-82
2023/10/23 03:51:01;;;;;;;;;;;4.80;99.90;;;;;;5098163;28;19916;-82
2023/10/23 03:53:27;;;;;;;;;;;4.80;99.90;;;;;;5081508;28;19965;-82
2023/10/23 03:55:53;;;;;;;;;;;4.90;99.90;;;;;;5080853;28;20362;-82
2023/10/23 03:58:18;;;;;;;;;;;5.00;99.90;;;;;;5095289;28;19922;-82
2023/10/23 04:00:44;;;;;;;;;;;5.00;99.90;;;;;;5099280;27;19920;-83
2023/10/23 04:03:11;;;;;;;;;;;4.90;99.90;;;;;;5082707;28;19924;-82
2023/10/23 04:05:40;;;;;;;;;;;4.90;99.90;;;;;;5090720;28;19919;-83
2023/10/23 04:08:06;;;;;;;;;;;4.80;99.90;;;;;;5097364;27;20392;-82
2023/10/23 04:10:31;;;;;;;;;;;4.80;99.90;;;;;;5099229;27;19927;-80
2023/10/23 04:12:57;;;;;;;;;;;4.80;99.90;;;;;;5100897;28;19919;-82
2023/10/23 04:15:26;;;;;;;;;;;4.80;99.90;;;;;;5093613;27;19972;-81
2023/10/23 04:17:52;;;;;;;;;;;4.70;99.90;;;;;;5096309;27;20003;-82
2023/10/23 04:20:17;;;;;;;;;;;4.70;99.90;;;;;;5092404;27;19987;-81
2023/10/23 04:22:43;;;;;;;;;;;4.80;99.90;;;;;;5103415;28;19916;-82
2023/10/23 04:25:09;;;;;;;;;;;4.70;99.90;;;;;;5108261;27;19923;-81
2023/10/23 04:27:35;;;;;;;;;;;4.80;99.90;;;;;;5087586;27;20052;-81
2023/10/23 04:30:00;;;;;;;;;;;4.70;99.90;;;;;;5094559;27;19927;-81
2023/10/23 04:32:26;;;;;;;;;;;4.70;99.90;;;;;;5107647;28;19934;-81
2023/10/23 04:34:52;;;;;;;;;;;4.70;99.90;;;;;;5087324;27;19920;-80
2023/10/23 04:37:18;;;;;;;;;;;4.60;99.90;;;;;;5099997;27;19919;-80
2023/10/23 04:39:44;;;;;;;;;;;4.60;99.90;;;;;;5103863;27;20479;-80
2023/10/23 04:42:09;;;;;;;;;;;4.60;99.90;;;;;;5108072;28;19940;-81
2023/10/23 04:44:35;;;;;;;;;;;4.50;99.90;;;;;;5083373;27;19919;-80
2023/10/23 04:47:01;;;;;;;;;;;4.50;99.90;;;;;;5117197;27;19927;-80
2023/10/23 04:49:27;;;;;;;;;;;4.50;99.90;;;;;;5118901;27;20256;-80
2023/10/23 04:51:53;;;;;;;;;;;4.50;99.90;;;;;;5106550;27;19973;-80
2023/10/23 04:54:19;;;;;;;;;;;4.40;99.90;;;;;;5098267;27;19922;-80
2023/10/23 04:56:45;;;;;;;;;;;4.40;99.90;;;;;;5086102;27;19920;-80
2023/10/23 04:59:10;;;;;;;;;;;4.40;99.90;;;;;;5090642;28;20282;-80
2023/10/23 05:01:36;;;;;;;;;;;4.40;99.90;;;;;;5108157;27;20324;-80
2023/10/23 05:04:02;;;;;;;;;;;4.40;99.90;;;;;;5098566;27;20913;-80
2023/10/23 05:06:28;;;;;;;;;;;4.30;99.90;;;;;;5103704;27;20327;-81
2023/10/23 05:08:53;;;;;;;;;;;4.40;99.90;;;;;;5091038;27;19979;-80
2023/10/23 05:11:19;;;;;;;;;;;4.30;99.90;;;;;;5104404;27;19927;-80
2023/10/23 05:13:46;;;;;;;;;;;4.30;99.90;;;;;;5100486;27;19916;-80
2023/10/23 05:16:15;;;;;;;;;;;4.30;99.90;;;;;;5100863;28;19922;-80
2023/10/23 05:18:40;;;;;;;;;;;4.30;99.90;;;;;;5102899;28;19955;-79
2023/10/23 05:21:10;;;;;;;;;;;4.20;99.90;;;;;;5087811;27;20369;-80
2023/10/23 05:23:36;;;;;;;;;;;4.20;99.90;;;;;;5099625;27;19995;-81
2023/10/23 05:26:02;;;;;;;;;;;4.20;99.90;;;;;;5085049;28;19983;-81
2023/10/23 05:28:28;;;;;;;;;;;4.20;99.90;;;;;;5088244;27;19990;-80
2023/10/23 05:30:53;;;;;;;;;;;4.10;99.90;;;;;;5102941;27;20293;-80
2023/10/23 05:33:19;;;;;;;;;;;4.20;99.90;;;;;;5101986;27;20210;-81
2023/10/23 05:35:45;;;;;;;;;;;4.20;99.90;;;;;;5104814;27;19955;-82
2023/10/23 05:38:11;;;;;;;;;;;4.20;99.90;;;;;;5081696;27;19992;-82
2023/10/23 05:40:37;;;;;;;;;;;4.20;99.90;;;;;;5088957;28;19949;-82
2023/10/23 05:43:02;;;;;;;;;;;4.20;99.90;;;;;;5101792;28;20332;-82
2023/10/23 05:45:28;;;;;;;;;;;4.40;99.90;;;;;;5101403;28;19945;-81
2023/10/23 05:47:53;;;;;;;;;;;4.30;99.90;;;;;;5100991;27;19941;-82
2023/10/23 05:50:19;;;;;;;;;;;4.30;99.90;;;;;;5095152;27;19963;-82
2023/10/23 05:52:44;;;;;;;;;;;4.30;99.90;;;;;;5099896;27;19981;-82
2023/10/23 05:55:10;;;;;;;;;;;4.30;99.90;;;;;;5100137;27;20760;-81
2023/10/23 05:57:36;;;;;;;;;;;4.30;99.90;;;;;;5083539;28;20076;-80
2023/10/23 06:00:03;;;;;;;;;;;4.30;99.90;;;;;;5102242;28;19969;-80
2023/10/23 06:02:30;;;;;;;;;;;4.20;99.90;;;;;;5100755;28;19924;-81
2023/10/23 06:04:55;;;;;;;;;;;4.10;99.90;;;;;;5108335;27;19928;-82
2023/10/23 06:07:21;;;;;;;;;;;4.10;99.90;;;;;;5100219;27;19925;-83
2023/10/23 06:09:47;;;;;;;;;;;4.10;99.90;;;;;;5078791;27;19985;-82
2023/10/23 06:12:17;;;;;;;;;;;4.10;99.90;;;;;;5088160;27;19919;-82
2023/10/23 06:14:43;;;;;;;;;;;4.10;99.90;;;;;;5087418;27;20003;-83
2023/10/23 06:17:09;;;;;;;;;;;4.10;99.90;;;;;;5104756;28;20363;-83
2023/10/23 06:19:36;;;;;;;;;;;4.00;99.90;;;;;;5093442;28;19916;-83
2023/10/23 06:22:02;;;;;;;;;;;4.00;99.90;;;;;;5109090;28;19935;-82
2023/10/23 06:24:27;;;;;;;;;;;4.10;99.90;;;;;;5111128;28;19939;-82
2023/10/23 06:26:53;;;;;;;;;;;4.00;99.90;;;;;;5095432;27;19915;-83
2023/10/23 06:29:19;;;;;;;;;;;4.00;99.90;;;;;;5094700;28;20622;-83
2023/10/23 06:31:44;;;;;;;;;;;4.00;99.90;;;;;;5104623;28;19926;-83
2023/10/23 06:34:10;;;;;;;;;;;4.00;99.90;;;;;;5109448;28;20006;-83
2023/10/23 06:36:40;;;;;;;;;;;4.00;99.90;;;;;;5106154;28;19977;-83
2023/10/23 06:39:05;;;;;;;;;;;4.10;99.90;;;;;;5111254;28;19916;-83
2023/10/23 06:41:32;;;;;;;;;;;4.10;99.90;;;;;;5084465;28;19923;-82
2023/10/23 06:43:57;;;;;;;;;;;4.20;99.90;;;;;;5117377;27;19964;-83
2023/10/23 06:46:23;;;;;;;;;;;4.20;99.90;;;;;;5119787;27;19919;-83
2023/10/23 06:48:48;;;;;;;;;;;4.20;99.90;;;;;;5102313;27;19922;-83
2023/10/23 06:51:14;;;;;;;;;;;4.30;99.90;;;;;;5102323;27;19922;-82
2023/10/23 06:53:40;;;;;;;;;;;4.30;99.90;;;;;;5102911;27;20002;-83
2023/10/23 06:56:07;;;;;;;;;;;4.30;99.90;;;;;;5119655;27;19916;-83
2023/10/23 06:58:33;;;;;;;;;;;4.30;99.90;;;;;;5113540;28;19937;-83
2023/10/23 07:01:08;;;;;;;;;;;4.40;99.90;;;;;;5091212;28;19915;-83
2023/10/23 07:03:34;;;;;;;;;;;4.40;99.90;;;;;;5117777;27;20002;-83
2023/10/23 07:06:04;;;;;;;;;;;4.40;99.90;;;;;;5117860;27;19920;-83
2023/10/23 07:08:30;;;;;;;;;;;4.50;99.90;;;;;;5100966;27;20306;-83
2023/10/23 07:10:55;;;;;;;;;;;4.60;99.90;;;;;;5118660;27;19965;-83
2023/10/23 07:13:21;;;;;;;;;;;4.60;99.90;;;;;;5102272;28;19971;-82
2023/10/23 07:15:47;;;;;;;;;;;4.70;99.90;;;;;;5069657;28;19915;-83
2023/10/23 07:18:13;;;;;;;;;;;4.80;99.90;;;;;;5115413;28;20328;-83
2023/10/23 07:20:39;;;;;;;;;;;4.90;99.90;;;;;;5112588;28;20002;-83
2023/10/23 07:23:04;;;;;;;;;;;5.00;99.90;;;;;;5098984;28;19920;-83
2023/10/23 07:25:30;;;;;;;;;;;5.10;99.90;;;;;;5082549;28;20255;-83
2023/10/23 07:27:55;;;;;;;;;;;5.20;99.90;;;;;;5098387;28;19916;-82
2023/10/23 07:30:24;;;;;;;;;;;5.30;99.90;;;;;;5098625;28;19923;-83
2023/10/23 07:32:49;;;;;;;;;;;5.40;99.90;;;;;;5103331;28;19924;-83
2023/10/23 07:35:15;;;;;;;;;;;5.60;99.90;;;;;;5115830;27;20379;-83
2023/10/23 07:37:41;;;;;;;;;;;5.60;99.90;;;;;;5101442;27;20328;-83
2023/10/23 07:40:07;;;;;;;;;;;5.70;99.90;;;;;;5101287;27;19915;-83
2023/10/23 07:42:32;;;;;;;;;;;5.80;99.90;;;;;;5101316;27;19972;-83
2023/10/23 07:44:58;;;;;;;;;;;5.90;99.90;;;;;;5084939;27;19969;-84
2023/10/23 07:47:24;;;;;;;;;;;6.00;99.90;;;;;;5115747;27;20458;-84
2023/10/23 07:49:50;;;;;;;;;;;6.20;99.90;;;;;;5098093;28;19977;-84
2023/10/23 07:52:15;;;;;;;;;;;6.30;99.90;;;;;;5115132;27;19998;-84
2023/10/23 07:54:41;;;;;;;;;;;6.40;99.90;;;;;;5100799;28;19915;-83
2023/10/23 07:57:06;;;;;;;;;;;6.50;99.90;;;;;;5103646;28;19978;-83
2023/10/23 07:59:32;;;;;;;;;;;6.60;99.90;;;;;;5098500;28;20414;-83
2023/10/23 08:01:58;;;;;;;;;;;6.80;99.90;;;;;;5111562;28;20355;-83
2023/10/23 08:04:23;;;;;;;;;;;6.90;99.90;;;;;;5076610;27;19976;-83
2023/10/23 08:06:49;;;;;;;;;;;7.00;99.90;;;;;;5117938;27;19921;-83
2023/10/23 08:09:15;;;;;;;;;;;7.10;99.90;;;;;;5118010;27;19923;-83
2023/10/23 08:11:40;;;;;;;;;;;7.20;99.90;;;;;;5084371;28;19988;-83
2023/10/23 08:14:06;;;;;;;;;;;7.40;99.90;;;;;;5102673;28;20149;-83
2023/10/23 08:16:31;;;;;;;;;;;7.40;99.90;;;;;;5097756;28;20012;-84
2023/10/23 08:19:00;;;;;;;;;;;7.50;99.90;;;;;;5083222;28;20301;-83
2023/10/23 08:21:28;;;;;;;;;;;7.50;99.90;;;;;;5105059;28;19938;-83
2023/10/23 08:23:55;;;;;;;;;;;7.60;99.90;;;;;;5094877;28;19941;-83
2023/10/23 08:26:21;;;;;;;;;;;7.70;99.90;;;;;;5105480;28;19938;-83
2023/10/23 08:28:47;;;;;;;;;;;7.80;99.90;;;;;;5117311;27;20281;-83
2023/10/23 08:31:12;;;;;;;;;;;8.00;99.90;;;;;;5083875;27;19975;-83
2023/10/23 08:33:38;;;;;;;;;;;8.00;99.90;;;;;;5102302;28;20262;-83
2023/10/23 08:36:04;;;;;;;;;;;8.00;99.90;;;;;;5100888;28;19916;-83
2023/10/23 08:38:29;;;;;;;;;;;8.10;99.90;;;;;;5104159;28;19958;-83
2023/10/23 08:40:55;;;;;;;;;;;8.20;99.90;;;;;;5096113;28;19923;-83
2023/10/23 08:43:21;;;;;;;;;;;8.30;99.90;;;;;;5097065;28;19916;-82
2023/10/23 08:45:48;;;;;;;;;;;8.40;99.90;;;;;;5099912;27;19972;-83
2023/10/23 08:48:14;;;;;;;;;;;8.50;99.90;;;;;;5100369;27;19967;-83
2023/10/23 08:50:41;;;;;;;;;;;8.50;99.90;;;;;;5117808;27;20026;-82
2023/10/23 08:53:08;;;;;;;;;;;8.70;99.90;;;;;;5117015;27;20009;-82
2023/10/23 08:55:34;;;;;;;;;;;8.70;99.90;;;;;;5107206;28;20030;-82
2023/10/23 08:57:59;;;;;;;;;;;8.80;99.90;;;;;;5081311;27;19963;-82
2023/10/23 09:00:25;;;;;;;;;;;8.80;99.90;;;;;;5109211;28;19916;-82
2023/10/23 09:02:51;;;;;;;;;;;8.90;99.90;;;;;;5096794;28;19958;-82
2023/10/23 09:05:17;;;;;;;;;;;9.00;99.90;;;;;;5112447;28;20341;-82
2023/10/23 09:07:43;;;;;;;;;;;9.10;99.90;;;;;;5096750;28;19916;-82
2023/10/23 09:10:08;;;;;;;;;;;9.20;99.90;;;;;;5099393;28;19938;-82
2023/10/23 09:12:35;;;;;;;;;;;9.20;99.90;;;;;;5073141;28;20392;-82
2023/10/23 09:15:14;;;;;;;;;;;9.30;99.90;;;;;;5098435;27;19919;-83
2023/10/23 09:17:40;;;;;;;;;;;9.30;99.90;;;;;;5090021;28;20302;-82
2023/10/23 09:20:24;;;;;;;;;;;9.40;99.90;;;;;;5079496;28;20007;-82
2023/10/23 09:22:51;;;;;;;;;;;9.50;99.90;;;;;;5103143;28;19916;-81
2023/10/23 09:25:21;;;;;;;;;;;9.40;99.90;;;;;;5113039;28;19919;-82
2023/10/23 09:27:47;;;;;;;;;;;9.50;99.90;;;;;;5101759;28;19976;-82
2023/10/23 09:30:13;;;;;;;;;;;9.60;99.90;;;;;;5083469;28;19920;-82
2023/10/23 09:32:39;;;;;;;;;;;9.70;99.90;;;;;;5081731;28;20293;-82
2023/10/23 09:35:05;;;;;;;;;;;9.90;99.90;;;;;;5115192;27;19915;-82
2023/10/23 09:37:31;;;;;;;;;;;9.90;99.90;;;;;;5115625;27;19919;-82
2023/10/23 09:40:05;;;;;;;;;;;10.10;99.90;;;;;;5087511;28;19923;-82
2023/10/23 09:42:31;;;;;;;;;;;10.20;99.90;;;;;;5110898;28;19938;-82
2023/10/23 09:44:59;;;;;;;;;;;10.30;99.90;;;;;;5106237;27;20043;-82
2023/10/23 09:47:26;;;;;;;;;;;10.30;99.90;;;;;;5116186;27;20297;-82
2023/10/23 09:49:52;;;;;;;;;;;10.40;99.90;;;;;;5090475;28;19916;-82
2023/10/23 09:52:20;;;;;;;;;;;10.50;99.90;;;;;;5076212;27;19926;-82
2023/10/23 09:54:49;;;;;;;;;;;10.60;99.90;;;;;;5101963;27;19923;-81
2023/10/23 09:57:16;;;;;;;;;;;10.70;99.90;;;;;;5089918;28;20269;-81
2023/10/23 09:59:44;;;;;;;;;;;10.70;99.90;;;;;;5095702;28;19969;-81
2023/10/23 10:02:13;;;;;;;;;;;10.80;99.90;;;;;;5112682;28;19926;-82
2023/10/23 10:04:50;;;;;;;;;;;10.90;99.90;;;;;;5112549;27;20317;-82
2023/10/23 10:07:21;;;;;;;;;;;11.00;99.90;;;;;;5107620;28;19915;-81
2023/10/23 10:09:47;;;;;;;;;;;11.10;99.90;;;;;;5095353;28;19999;-82
2023/10/23 10:12:12;;;;;;;;;;;11.20;99.90;;;;;;5098775;28;20451;-82
2023/10/23 10:14:40;;;;;;;;;;;11.30;99.90;;;;;;5095340;28;20021;-82
2023/10/23 10:17:06;;;;;;;;;;;11.40;99.90;;;;;;5096306;28;20282;-82
2023/10/23 10:19:33;;;;;;;;;;;11.50;99.90;;;;;;5103095;28;20294;-82
2023/10/23 10:22:03;;;;;;;;;;;11.60;99.90;;;;;;5095207;28;19915;-82
2023/10/23 10:24:28;;;;;;;;;;;11.80;99.90;;;;;;5105525;28;19930;-82
2023/10/23 10:26:54;;;;;;;;;;;11.90;99.90;;;;;;5109459;27;19916;-82
2023/10/23 10:29:20;;;;;;;;;;;12.10;99.90;;;;;;5098793;27;19938;-82
2023/10/23 10:32:05;;;;;;;;;;;12.20;99.90;;;;;;5101599;28;19926;-82
2023/10/23 10:34:32;;;;;;;;;;;12.40;99.90;;;;;;5103942;28;19968;-82
2023/10/23 10:36:58;;;;;;;;;;;12.70;99.90;;;;;;5115949;27;19938;-82
2023/10/23 10:39:43;;;;;;;;;;;12.90;99.90;;;;;;5115803;28;19916;-82
2023/10/23 10:42:09;;;;;;;;;;;13.20;99.90;;;;;;5097248;28;19915;-82
2023/10/23 10:44:50;;;;;;;;;;;13.40;99.90;;;;;;5078727;28;19915;-82
2023/10/23 10:47:16;;;;;;;;;;;13.60;99.90;;;;;;5107374;28;20267;-82
2023/10/23 10:49:44;;;;;;;;;;;13.70;99.90;;;;;;5090911;28;19919;-82
2023/10/23 10:52:31;;;;;;;;;;;13.80;99.90;;;;;;5094833;28;19931;-82
2023/10/23 10:55:00;;;;;;;;;;;14.00;99.90;;;;;;5108639;28;19916;-82
2023/10/23 10:57:26;;;;;;;;;;;14.10;99.90;;;;;;5095110;28;19916;-82
2023/10/23 10:59:55;;;;;;;;;;;14.30;99.90;;;;;;5077679;28;20002;-82
2023/10/23 11:02:22;;;;;;;;;;;14.40;99.90;;;;;;5094821;28;19976;-82
2023/10/23 11:04:47;;;;;;;;;;;14.50;99.90;;;;;;5094388;28;20026;-82
2023/10/23 11:07:13;;;;;;;;;;;14.50;99.90;;;;;;5099303;28;20010;-82
2023/10/23 11:09:38;;;;;;;;;;;14.50;99.90;;;;;;5084487;28;19916;-82
2023/10/23 11:12:06;;;;;;;;;;;14.60;99.90;;;;;;5094581;28;20355;-82
2023/10/23 11:14:31;;;;;;;;;;;14.70;99.90;;;;;;5086266;28;19919;-82
2023/10/23 11:16:57;;;;;;;;;;;14.70;99.90;;;;;;5097479;28;19922;-82
2023/10/23 11:19:23;;;;;;;;;;;14.90;99.90;;;;;;5087619;28;20424;-82
2023/10/23 11:21:48;;;;;;;;;;;15.00;99.90;;;;;;5094482;28;19915;-82
2023/10/23 11:24:14;;;;;;;;;;;15.20;99.90;;;;;;5094294;28;20006;-82
2023/10/23 11:26:40;;;;;;;;;;;15.20;99.90;;;;;;5105345;28;19922;-82
2023/10/23 11:29:05;;;;;;;;;;;15.30;99.90;;;;;;5098187;28;20371;-82
2023/10/23 11:31:31;;;;;;;;;;;15.40;99.90;;;;;;5106428;28;19920;-82
2023/10/23 11:33:57;;;;;;;;;;;15.50;99.90;;;;;;5098202;28;19923;-82
2023/10/23 11:36:26;;;;;;;;;;;15.60;99.90;;;;;;5115043;28;19975;-82
2023/10/23 11:38:52;;;;;;;;;;;15.70;99.90;;;;;;5084688;28;19923;-82
2023/10/23 11:41:17;;;;;;;;;;;15.80;99.90;;;;;;5081038;28;19915;-82
2023/10/23 11:43:43;;;;;;;;;;;15.80;99.90;;;;;;5109497;28;20008;-82
2023/10/23 11:46:09;;;;;;;;;;;15.90;99.90;;;;;;5084275;27;19916;-82
2023/10/23 11:48:34;;;;;;;;;;;15.80;99.90;;;;;;5118377;27;20005;-82
2023/10/23 11:51:00;;;;;;;;;;;15.80;99.90;;;;;;5096976;28;19924;-82
2023/10/23 11:53:26;;;;;;;;;;;15.70;99.90;;;;;;5100545;28;19920;-82
2023/10/23 11:55:52;;;;;;;;;;;15.70;99.90;;;;;;5105760;28;20003;-82
2023/10/23 11:58:27;;;;;;;;;;;15.60;99.90;;;;;;5111565;28;20045;-82
2023/10/23 12:00:52;;;;;;;;;;;15.70;99.90;;;;;;5113562;28;19919;-81
2023/10/23 12:03:18;;;;;;;;;;;15.70;99.90;;;;;;5094522;28;20385;-82
2023/10/23 12:05:44;;;;;;;;;;;15.60;99.90;;;;;;5093143;28;19926;-82
2023/10/23 12:08:12;;;;;;;;;;;15.60;99.90;;;;;;5093162;28;19924;-82
2023/10/23 12:10:38;;;;;;;;;;;15.70;99.90;;;;;;5085037;28;20281;-82
2023/10/23 12:13:03;;;;;;;;;;;15.70;99.90;;;;;;5100176;28;19920;-82
2023/10/23 12:15:29;;;;;;;;;;;15.70;99.90;;;;;;5093882;28;19939;-82
2023/10/23 12:18:03;;;;;;;;;;;15.70;99.90;;;;;;5093739;28;20010;-82
2023/10/23 12:20:29;;;;;;;;;;;15.70;99.90;;;;;;5094293;28;20358;-82
2023/10/23 12:22:55;;;;;;;;;;;15.60;99.90;;;;;;5094237;28;20444;-82
2023/10/23 12:25:21;;;;;;;;;;;15.50;99.90;;;;;;5096288;28;19978;-82
2023/10/23 12:27:47;;;;;;;;;;;15.50;99.90;;;;;;5088083;28;19923;-82
2023/10/23 12:30:14;;;;;;;;;;;15.40;99.90;;;;;;5108003;28;19923;-82
2023/10/23 12:32:40;;;;;;;;;;;15.30;99.90;;;;;;5093692;28;20007;-82
2023/10/23 12:35:06;;;;;;;;;;;15.30;99.90;;;;;;5093958;28;19962;-82
2023/10/23 12:37:32;;;;;;;;;;;15.40;99.90;;;;;;5094088;28;19927;-82
2023/10/23 12:40:00;;;;;;;;;;;15.40;99.90;;;;;;5104424;28;19916;-82
2023/10/23 12:42:27;;;;;;;;;;;15.40;99.90;;;;;;5093493;28;19984;-82
2023/10/23 12:44:54;;;;;;;;;;;15.40;99.90;;;;;;5092700;28;20010;-83
2023/10/23 12:47:20;;;;;;;;;;;15.40;99.90;;;;;;5075768;28;19995;-83
2023/10/23 12:49:45;;;;;;;;;;;15.30;99.90;;;;;;5093064;28;20402;-83
2023/10/23 12:52:11;;;;;;;;;;;15.20;99.90;;;;;;5106708;28;20374;-83
2023/10/23 12:54:37;;;;;;;;;;;15.10;99.90;;;;;;5094487;28;20012;-83
2023/10/23 12:57:04;;;;;;;;;;;15.10;99.90;;;;;;5106020;28;19965;-83
2023/10/23 12:59:32;;;;;;;;;;;15.00;99.90;;;;;;5070870;28;19959;-82
2023/10/23 13:01:59;;;;;;;;;;;14.90;99.90;;;;;;5082396;28;19922;-82
2023/10/23 13:04:24;;;;;;;;;;;14.90;99.90;;;;;;5100080;28;19923;-82
2023/10/23 13:06:50;;;;;;;;;;;14.90;99.90;;;;;;5092909;28;19958;-82
2023/10/23 13:09:16;;;;;;;;;;;14.80;99.90;;;;;;5103577;28;20025;-84
2023/10/23 13:11:42;;;;;;;;;;;14.80;99.90;;;;;;5112255;28;20014;-82
2023/10/23 13:14:08;;;;;;;;;;;14.80;99.90;;;;;;5103905;28;19920;-82
2023/10/23 13:16:33;;;;;;;;;;;14.80;99.90;;;;;;5075886;28;20279;-82
2023/10/23 13:18:59;;;;;;;;;;;14.60;99.90;;;;;;5088621;28;20022;-83
2023/10/23 13:21:24;;;;;;;;;;;14.50;99.90;;;;;;5075635;28;19916;-82
2023/10/23 13:23:50;;;;;;;;;;;14.50;99.90;;;;;;5092056;28;20264;-82
2023/10/23 13:26:17;;;;;;;;;;;14.40;99.90;;;;;;5103191;28;19916;-83
2023/10/23 13:28:43;;;;;;;;;;;14.40;99.90;;;;;;5098387;28;19961;-84
2023/10/23 13:31:08;;;;;;;;;;;14.30;99.90;;;;;;5112224;28;20294;-82
2023/10/23 13:33:34;;;;;;;;;;;14.20;99.90;;;;;;5112333;28;19931;-83
2023/10/23 13:36:00;;;;;;;;;;;14.20;99.90;;;;;;5112487;28;19922;-83
2023/10/23 13:38:25;;;;;;;;;;;14.10;99.90;;;;;;5112063;28;20744;-83
2023/10/23 13:40:51;;;;;;;;;;;14.10;99.90;;;;;;5094116;28;19916;-82
2023/10/23 13:43:17;;;;;;;;;;;14.10;99.90;;;;;;5092474;28;19935;-82
2023/10/23 13:45:43;;;;;;;;;;;14.10;99.90;;;;;;5092162;28;19983;-82
2023/10/23 13:48:08;;;;;;;;;;;14.10;99.90;;;;;;5113000;28;19919;-82
2023/10/23 13:50:34;;;;;;;;;;;14.10;99.90;;;;;;5098663;28;19923;-83
2023/10/23 13:53:00;;;;;;;;;;;14.10;99.90;;;;;;5088485;28;19920;-82
2023/10/23 13:55:26;;;;;;;;;;;14.10;99.90;;;;;;5091948;28;19938;-82
2023/10/23 13:57:52;;;;;;;;;;;14.10;99.90;;;;;;5083452;28;19916;-81
2023/10/23 14:00:17;;;;;;;;;;;14.10;99.90;;;;;;5105022;28;19915;-83
2023/10/23 14:02:44;;;;;;;;;;;13.90;99.90;;;;;;5082871;28;19966;-83
2023/10/23 14:05:09;;;;;;;;;;;13.80;99.90;;;;;;5097281;28;19920;-80
2023/10/23 14:07:35;;;;;;;;;;;13.80;99.90;;;;;;5077770;28;20032;-80
2023/10/23 14:10:02;;;;;;;;;;;13.80;99.90;;;;;;5075218;28;19916;-79
2023/10/23 14:12:27;;;;;;;;;;;13.70;99.90;;;;;;5094586;28;19920;-81
2023/10/23 14:14:53;;;;;;;;;;;13.60;99.90;;;;;;5096260;28;20301;-79
2023/10/23 14:17:19;;;;;;;;;;;13.60;99.90;;;;;;5091456;28;19953;-79
2023/10/23 14:19:44;;;;;;;;;;;13.50;99.90;;;;;;5112043;27;19942;-79
2023/10/23 14:22:10;;;;;;;;;;;13.50;99.90;;;;;;5062504;28;21110;-83